Time;durP1;ratioP1;P1;durP2;ratioP2;P2;SDS_P1;SDS_P2;PMS_P1;PMS_P2;Temp;Humidity;BMP_temperature;BMP_pressure;BME280_temperature;BME280_humidity;BME280_pressure;Samples;Min_cycle;Max_cycle;Signal;HPM_P1;HPM_P2
2021/10/29 04:32:58;;;;;;;21.90;13.03;;;2.70;99.90;;;;;;5041218;22;21285;-75
2021/10/29 04:35:25;;;;;;;17.10;13.30;;;2.70;99.90;;;;;;5002911;28;20907;-75
2021/10/29 04:37:51;;;;;;;20.70;13.00;;;2.70;99.90;;;;;;4992906;28;20414;-74
2021/10/29 04:40:16;;;;;;;20.00;12.70;;;2.80;99.90;;;;;;5000263;28;20412;-75
2021/10/29 04:42:42;;;;;;;22.90;13.37;;;2.80;99.90;;;;;;5012403;28;20434;-75
2021/10/29 04:45:09;;;;;;;21.17;14.40;;;2.80;99.90;;;;;;5010203;28;20203;-75
2021/10/29 04:47:34;;;;;;;21.80;13.17;;;2.80;99.90;;;;;;5012653;28;20185;-76
2021/10/29 04:50:01;;;;;;;21.20;13.87;;;2.80;99.90;;;;;;5010233;28;20433;-75
2021/10/29 04:52:26;;;;;;;29.00;13.53;;;2.80;99.90;;;;;;5010495;28;20209;-75
2021/10/29 04:54:52;;;;;;;25.53;13.70;;;2.80;99.90;;;;;;5010833;28;20444;-76
2021/10/29 04:57:17;;;;;;;21.50;13.60;;;2.70;99.90;;;;;;5010175;28;20545;-75
2021/10/29 04:59:44;;;;;;;19.90;12.00;;;2.80;99.90;;;;;;5012367;28;20549;-75
2021/10/29 05:02:09;;;;;;;23.87;14.63;;;2.70;99.90;;;;;;5007652;28;20273;-75
2021/10/29 05:04:35;;;;;;;16.73;12.27;;;2.70;99.90;;;;;;5012431;28;20389;-76
2021/10/29 05:07:00;;;;;;;27.57;13.60;;;2.70;99.90;;;;;;5007597;28;20223;-75
2021/10/29 05:09:26;;;;;;;18.83;12.10;;;2.70;99.90;;;;;;5012181;28;20183;-75
2021/10/29 05:11:51;;;;;;;16.00;13.23;;;2.70;99.90;;;;;;5008367;28;20215;-76
2021/10/29 05:14:17;;;;;;;23.33;15.67;;;2.70;99.90;;;;;;5010473;28;20211;-75
2021/10/29 05:16:43;;;;;;;25.73;13.60;;;2.70;99.90;;;;;;5009898;28;20187;-75
2021/10/29 05:19:08;;;;;;;19.97;12.73;;;2.70;99.90;;;;;;5011908;28;20184;-76
2021/10/29 05:21:34;;;;;;;17.43;11.20;;;2.70;99.90;;;;;;5007617;28;20456;-75
2021/10/29 05:23:59;;;;;;;23.37;14.17;;;2.70;99.90;;;;;;5011558;28;20537;-76
2021/10/29 05:26:25;;;;;;;20.13;13.43;;;2.70;99.90;;;;;;5011349;28;20234;-76
2021/10/29 05:28:50;;;;;;;19.30;13.97;;;2.60;99.90;;;;;;5008284;28;20762;-75
2021/10/29 05:31:16;;;;;;;22.13;14.80;;;2.60;99.90;;;;;;5011599;28;20222;-75
2021/10/29 05:33:42;;;;;;;23.80;13.57;;;2.60;99.90;;;;;;5005058;28;20203;-76
2021/10/29 05:36:08;;;;;;;20.10;13.13;;;2.60;99.90;;;;;;5009588;28;20196;-75
2021/10/29 05:38:34;;;;;;;21.73;15.37;;;2.60;99.90;;;;;;5009651;28;20227;-75
2021/10/29 05:41:01;;;;;;;20.03;14.20;;;2.60;99.90;;;;;;5010173;28;20445;-75
2021/10/29 05:43:27;;;;;;;25.57;14.60;;;2.60;99.90;;;;;;5007649;28;20443;-75
2021/10/29 05:45:53;;;;;;;20.27;12.53;;;2.60;99.90;;;;;;5009617;28;20393;-75
2021/10/29 05:48:19;;;;;;;19.67;14.20;;;2.60;99.90;;;;;;5010062;28;20529;-75
2021/10/29 05:50:49;;;;;;;25.67;13.73;;;2.60;99.90;;;;;;5009488;28;20542;-75
2021/10/29 05:53:38;;;;;;;23.00;15.07;;;2.60;99.90;;;;;;5009721;28;20188;-75
2021/10/29 05:56:05;;;;;;;24.90;15.63;;;2.80;99.90;;;;;;5009461;28;20895;-75
2021/10/29 05:58:32;;;;;;;25.80;15.73;;;2.90;99.90;;;;;;5009558;28;20503;-74
2021/10/29 06:00:58;;;;;;;28.03;16.03;;;3.00;99.90;;;;;;5010251;28;20463;-75
2021/10/29 06:03:23;;;;;;;28.63;17.20;;;3.10;99.90;;;;;;5009379;28;20451;-75
2021/10/29 06:05:49;;;;;;;33.77;16.90;;;3.20;99.90;;;;;;5005312;28;20449;-75
2021/10/29 06:08:14;;;;;;;23.70;15.70;;;3.20;99.90;;;;;;5011493;28;20275;-73
2021/10/29 06:10:40;;;;;;;25.87;17.20;;;3.20;99.90;;;;;;5009400;28;20564;-73
2021/10/29 06:13:06;;;;;;;27.23;18.70;;;3.30;99.90;;;;;;5010858;28;20175;-74
2021/10/29 06:15:32;;;;;;;25.37;16.63;;;3.30;99.90;;;;;;5007749;28;20446;-73
2021/10/29 06:17:58;;;;;;;30.13;17.87;;;3.50;99.90;;;;;;5011868;28;20171;-73
2021/10/29 06:20:25;;;;;;;29.93;18.30;;;3.50;99.90;;;;;;5005126;28;20430;-73
2021/10/29 06:22:53;;;;;;;22.23;14.67;;;3.60;99.90;;;;;;5012255;28;20422;-73
2021/10/29 06:25:21;;;;;;;26.90;14.67;;;3.70;99.90;;;;;;5011573;28;20869;-74
2021/10/29 06:30:41;;;;;;;24.27;15.20;;;3.80;99.90;;;;;;5013419;28;20491;-72
2021/10/29 06:33:08;;;;;;;29.33;16.40;;;3.80;99.90;;;;;;5012422;28;20430;-73
2021/10/29 06:35:34;;;;;;;23.33;15.23;;;4.00;99.90;;;;;;5006761;28;21016;-73
2021/10/29 06:38:00;;;;;;;20.70;14.43;;;4.10;99.90;;;;;;5014711;28;20476;-73
2021/10/29 06:40:27;;;;;;;23.40;15.10;;;4.10;99.90;;;;;;5012684;28;20620;-70
2021/10/29 06:43:05;;;;;;;26.60;14.90;;;4.20;99.90;;;;;;5014475;28;20192;-72
2021/10/29 06:45:57;;;;;;;23.90;15.77;;;4.30;99.90;;;;;;5012823;28;20873;-73
2021/10/29 06:48:32;;;;;;;24.63;16.27;;;4.40;99.90;;;;;;5012692;28;20810;-72
2021/10/29 06:59:35;;;;;;;22.50;15.33;;;5.10;99.90;;;;;;5013924;28;20423;-73
2021/10/29 07:40:08;;;;;;;14.00;10.37;;;14.20;99.90;;;;;;5011791;28;20876;-72
2021/10/29 07:42:44;;;;;;;13.93;11.37;;;14.40;99.90;;;;;;5012934;28;20487;-70
2021/10/29 07:45:11;;;;;;;14.30;10.97;;;14.40;99.90;;;;;;5013383;28;20432;-71
2021/10/29 07:47:38;;;;;;;17.23;11.50;;;14.50;99.90;;;;;;5013456;28;20425;-71
2021/10/29 07:50:08;;;;;;;20.97;10.00;;;14.40;99.90;;;;;;5004908;28;20481;-71
2021/10/29 07:52:35;;;;;;;12.90;11.10;;;13.90;99.90;;;;;;5012344;28;20445;-71
2021/10/29 07:55:01;;;;;;;13.23;11.10;;;13.20;99.90;;;;;;5011064;28;20853;-71
2021/10/29 07:57:26;;;;;;;17.63;11.97;;;12.60;99.90;;;;;;5013410;28;20414;-72
2021/10/29 07:59:54;;;;;;;15.60;12.20;;;12.30;99.90;;;;;;5009112;28;20442;-70
2021/10/29 08:02:21;;;;;;;18.97;12.93;;;12.30;99.90;;;;;;5013025;28;20593;-71
2021/10/29 08:04:47;;;;;;;21.10;12.50;;;12.20;99.90;;;;;;5011014;28;20491;-71
2021/10/29 08:07:13;;;;;;;20.73;13.07;;;12.00;99.90;;;;;;5006531;28;20437;-72
2021/10/29 08:09:40;;;;;;;18.87;13.47;;;11.70;99.90;;;;;;5011183;28;20213;-71
2021/10/29 08:12:07;;;;;;;17.27;12.70;;;11.80;99.90;;;;;;5010542;28;20487;-69
2021/10/29 08:14:32;;;;;;;16.53;13.47;;;12.00;99.90;;;;;;5010841;28;20619;-70
2021/10/29 08:16:58;;;;;;;18.70;11.97;;;12.40;99.90;;;;;;5012928;28;20957;-71
2021/10/29 08:19:31;;;;;;;14.83;10.63;;;12.20;99.90;;;;;;5010971;28;20542;-71
2021/10/29 08:21:58;;;;;;;13.77;10.60;;;12.20;99.90;;;;;;5009708;28;20673;-71
2021/10/29 08:24:25;;;;;;;16.10;11.93;;;12.00;99.90;;;;;;5012830;28;21273;-71
2021/10/29 08:26:50;;;;;;;19.10;11.10;;;11.90;99.90;;;;;;5010802;28;20430;-71
2021/10/29 08:29:17;;;;;;;15.00;10.97;;;11.80;99.90;;;;;;5012813;28;20496;-71
2021/10/29 08:31:43;;;;;;;16.07;10.53;;;11.80;99.90;;;;;;5004939;28;20282;-71
2021/10/29 08:34:08;;;;;;;13.77;11.03;;;11.50;99.90;;;;;;5007851;28;20504;-71
2021/10/29 08:36:37;;;;;;;16.07;12.10;;;11.30;99.90;;;;;;5006070;28;20851;-71
2021/10/29 08:39:06;;;;;;;15.80;11.90;;;11.30;99.90;;;;;;5012621;28;20238;-71
2021/10/29 08:41:32;;;;;;;20.50;13.27;;;11.40;99.90;;;;;;5000972;28;20939;-71
2021/10/29 08:43:59;;;;;;;17.53;11.60;;;11.50;99.90;;;;;;4991877;28;20414;-71
2021/10/29 08:46:27;;;;;;;17.10;12.30;;;11.50;99.90;;;;;;4992744;28;20412;-71
2021/10/29 08:48:53;;;;;;;18.67;11.70;;;11.40;99.90;;;;;;4992793;28;20419;-71
2021/10/29 08:51:19;;;;;;;19.73;13.73;;;11.30;99.90;;;;;;4992669;28;20965;-71
2021/10/29 08:53:45;;;;;;;23.40;12.87;;;11.10;99.90;;;;;;4992516;28;20750;-71
2021/10/29 08:56:10;;;;;;;23.47;13.77;;;11.00;99.90;;;;;;4992556;28;20181;-71
2021/10/29 08:59:03;;;;;;;18.07;12.70;;;11.00;99.90;;;;;;4992779;28;20418;-71
2021/10/29 09:01:44;;;;;;;21.30;11.73;;;11.50;99.90;;;;;;4992464;28;20195;-71
2021/10/29 09:04:10;;;;;;;18.00;11.80;;;11.80;99.90;;;;;;4992302;28;20425;-71
2021/10/29 09:09:36;;;;;;;18.27;12.10;;;12.40;99.90;;;;;;4992643;28;20417;-70
2021/10/29 09:16:11;;;;;;;14.43;11.20;;;12.50;99.90;;;;;;4992170;28;20434;-71
2021/10/29 09:31:22;;;;;;;13.50;11.40;;;12.50;99.90;;;;;;4992251;28;20536;-71
2021/10/29 09:32:00;;;;;;;18.57;12.43;;;12.80;99.90;;;;;;4992193;28;20461;-71
2021/10/29 09:34:26;;;;;;;23.90;11.40;;;12.70;99.90;;;;;;4991956;28;20470;-71
2021/10/29 09:36:52;;;;;;;15.90;13.00;;;12.70;99.90;;;;;;4992018;28;20966;-71
2021/10/29 09:39:23;;;;;;;17.47;13.30;;;12.60;99.90;;;;;;4992085;28;20199;-71
2021/10/29 09:42:09;;;;;;;19.33;13.67;;;12.70;99.90;;;;;;4992043;28;21017;-71
2021/10/29 09:44:42;;;;;;;15.43;12.20;;;12.70;99.90;;;;;;4992227;28;20446;-70
2021/10/29 09:47:08;;;;;;;18.63;13.53;;;12.60;99.90;;;;;;4991929;28;20426;-71
2021/10/29 09:49:39;;;;;;;19.70;12.67;;;12.80;99.90;;;;;;4991957;28;20518;-70
2021/10/29 09:55:23;;;;;;;21.80;13.43;;;13.60;99.90;;;;;;4992077;28;20474;-71
2021/10/29 09:57:38;;;;;;;16.80;12.60;;;14.10;99.90;;;;;;4991005;28;20445;-71
2021/10/29 10:00:11;;;;;;;15.40;12.17;;;14.20;99.90;;;;;;4995806;28;20474;-73
2021/10/29 10:02:40;;;;;;;16.90;12.50;;;14.70;99.90;;;;;;4995631;28;20191;-73
2021/10/29 10:05:07;;;;;;;17.87;11.83;;;15.10;99.90;;;;;;4995769;28;20418;-70
2021/10/29 10:07:35;;;;;;;21.00;12.63;;;15.30;99.90;;;;;;4995909;28;20418;-72
2021/10/29 10:10:02;;;;;;;31.63;13.63;;;15.40;99.90;;;;;;4995663;28;20407;-71
2021/10/29 10:12:30;;;;;;;20.77;13.07;;;15.60;99.90;;;;;;4995432;28;20442;-71
2021/10/29 10:14:58;;;;;;;21.77;13.03;;;15.70;99.90;;;;;;4995588;28;20876;-71
2021/10/29 10:17:25;;;;;;;17.23;13.10;;;15.70;99.90;;;;;;4995690;28;20776;-71
2021/10/29 10:19:52;;;;;;;17.67;12.13;;;15.90;99.90;;;;;;4995421;28;20417;-71
2021/10/29 10:22:20;;;;;;;19.57;13.97;;;16.10;99.90;;;;;;4995237;28;20854;-72
2021/10/29 10:25:06;;;;;;;14.50;11.90;;;16.20;99.90;;;;;;4995618;28;20946;-72
2021/10/29 10:30:12;;;;;;;18.17;13.47;;;16.20;99.90;;;;;;4995343;28;20414;-71
2021/10/29 10:47:06;;;;;;;16.30;13.17;;;17.30;99.90;;;;;;4994932;28;20418;-72
2021/10/29 10:49:51;;;;;;;18.30;12.63;;;17.10;99.90;;;;;;4995257;28;20947;-71
2021/10/29 10:52:25;;;;;;;13.87;12.40;;;17.10;99.90;;;;;;4993366;28;20450;-71
2021/10/29 10:55:12;;;;;;;12.80;11.47;;;17.20;99.90;;;;;;4994985;28;20998;-71
2021/10/29 11:11:19;;;;;;;15.93;12.40;;;17.40;99.90;;;;;;4993555;28;20419;-71
2021/10/29 11:13:57;;;;;;;15.80;12.33;;;17.30;99.90;;;;;;4994053;28;20422;-73
2021/10/29 11:16:23;;;;;;;16.80;12.13;;;17.60;99.90;;;;;;4994586;28;20414;-73
2021/10/29 11:18:55;;;;;;;17.80;13.00;;;17.70;99.90;;;;;;4994501;28;20771;-72
2021/10/29 11:21:33;;;;;;;17.80;11.87;;;17.90;99.90;;;;;;4994499;28;20548;-73
2021/10/29 11:24:01;;;;;;;16.73;12.60;;;17.70;99.90;;;;;;4994062;28;20837;-73
2021/10/29 11:26:47;;;;;;;20.20;12.93;;;17.70;99.90;;;;;;4994518;28;20469;-72
2021/10/29 11:29:13;;;;;;;16.67;11.70;;;17.60;99.90;;;;;;4994273;28;20449;-72
2021/10/29 11:31:49;;;;;;;19.20;13.37;;;17.30;99.90;;;;;;4994059;28;20462;-73
2021/10/29 11:34:16;;;;;;;18.67;13.00;;;17.20;99.90;;;;;;4993963;28;20457;-72
2021/10/29 11:36:53;;;;;;;19.23;14.10;;;17.10;99.90;;;;;;4994235;28;20415;-72
2021/10/29 11:39:22;;;;;;;17.03;13.47;;;16.90;99.90;;;;;;4994263;28;20422;-72
2021/10/29 11:41:50;;;;;;;17.80;14.73;;;16.90;99.90;;;;;;4993971;28;20526;-72
2021/10/29 11:44:24;;;;;;;22.03;14.27;;;16.90;99.90;;;;;;4993864;28;20426;-72
2021/10/29 11:46:53;;;;;;;24.37;14.63;;;16.70;99.90;;;;;;4994042;28;20422;-71
2021/10/29 11:49:24;;;;;;;21.73;14.00;;;16.50;99.90;;;;;;4993969;28;20919;-72
2021/10/29 11:51:51;;;;;;;23.13;14.03;;;16.50;99.90;;;;;;4993804;28;20445;-72
2021/10/29 12:07:18;;;;;;;22.50;11.90;;;16.60;99.90;;;;;;4993992;28;20936;-72
2021/10/29 12:09:56;;;;;;;18.30;12.03;;;16.60;99.90;;;;;;4993527;28;20446;-73
2021/10/29 12:12:27;;;;;;;15.73;11.83;;;16.60;99.90;;;;;;4993284;28;20430;-72
2021/10/29 12:14:55;;;;;;;15.87;12.03;;;16.60;99.90;;;;;;4993360;28;20476;-72
2021/10/29 12:17:32;;;;;;;16.13;12.20;;;16.60;99.90;;;;;;4992246;28;20430;-72
2021/10/29 12:20:04;;;;;;;19.83;13.90;;;16.50;99.90;;;;;;4993196;28;20414;-72
2021/10/29 12:22:45;;;;;;;17.83;12.10;;;16.50;99.90;;;;;;4992796;28;20462;-73
2021/10/29 12:25:27;;;;;;;13.23;11.73;;;16.50;99.90;;;;;;4994094;28;20433;-73
2021/10/29 12:30:27;;;;;;;19.50;12.47;;;16.50;99.90;;;;;;4993348;28;20935;-73
2021/10/29 12:52:15;;;;;;;14.07;11.50;;;16.70;99.90;;;;;;4992796;28;20958;-72
2021/10/29 13:03:01;;;;;;;16.80;11.33;;;16.70;99.90;;;;;;4992308;28;20421;-72
2021/10/29 13:05:27;;;;;;;12.63;11.10;;;16.70;99.90;;;;;;4992511;28;20461;-71
2021/10/29 13:07:52;;;;;;;11.40;10.20;;;16.70;99.90;;;;;;4992680;28;20418;-71
2021/10/29 13:10:19;;;;;;;13.50;10.30;;;16.80;99.90;;;;;;4992378;28;20232;-71
2021/10/29 13:15:15;;;;;;;13.80;10.80;;;16.80;99.90;;;;;;4992392;28;20462;-72
2021/10/29 13:17:52;;;;;;;13.50;10.10;;;16.80;99.90;;;;;;4992244;28;20498;-71
2021/10/29 13:28:22;;;;;;;15.43;10.13;;;16.90;99.90;;;;;;4992159;28;20421;-71
2021/10/29 13:36:26;;;;;;;14.50;9.10;;;16.80;99.90;;;;;;4992410;28;20791;-72
2021/10/29 13:55:20;;;;;;;10.30;9.10;;;16.70;99.90;;;;;;4992118;28;20930;-72
2021/10/29 13:58:00;;;;;;;15.53;8.37;;;16.60;99.90;;;;;;4992001;28;20474;-72
2021/10/29 14:32:26;;;;;;;7.67;6.87;;;16.10;99.90;;;;;;4991142;28;20454;-71
2021/10/29 14:34:54;;;;;;;11.73;7.93;;;16.10;99.90;;;;;;4991622;28;20261;-72
2021/10/29 14:37:39;;;;;;;22.70;8.23;;;16.10;99.90;;;;;;4991513;28;20428;-72
2021/10/29 14:40:14;;;;;;;12.10;8.40;;;16.10;99.90;;;;;;4991628;28;20505;-72
2021/10/29 15:06:26;;;;;;;12.70;6.70;;;15.50;99.90;;;;;;4995528;28;20949;-71
2021/10/29 15:25:21;;;;;;;13.50;7.87;;;15.20;99.90;;;;;;4994822;28;20934;-72
2021/10/29 15:33:14;;;;;;;10.43;9.17;;;14.90;99.90;;;;;;4993961;28;20199;-72
2021/10/29 15:41:16;;;;;;;12.80;7.33;;;14.60;99.90;;;;;;4994195;28;20432;-72
2021/10/29 15:48:56;;;;;;;16.73;10.57;;;14.00;99.90;;;;;;4994004;28;20777;-72
2021/10/29 15:51:22;;;;;;;12.60;8.57;;;13.80;99.90;;;;;;4993802;28;20435;-72
2021/10/29 15:53:48;;;;;;;12.90;8.70;;;13.60;99.90;;;;;;4993574;28;20538;-71
2021/10/29 15:56:37;;;;;;;11.53;8.20;;;13.40;99.90;;;;;;4993235;28;20179;-71
2021/10/29 15:59:22;;;;;;;8.43;7.20;;;13.30;99.90;;;;;;4993827;28;20829;-72
2021/10/29 16:17:48;;;;;;;9.00;6.50;;;11.80;99.90;;;;;;4993511;28;20426;-71
2021/10/29 16:20:14;;;;;;;10.67;7.30;;;11.70;99.90;;;;;;4993411;28;20419;-71
2021/10/29 16:22:40;;;;;;;11.10;7.73;;;11.60;99.90;;;;;;4992955;28;20435;-74
2021/10/29 16:25:12;;;;;;;9.30;7.43;;;11.50;99.90;;;;;;4993319;28;20553;-74
2021/10/29 16:27:58;;;;;;;9.30;7.50;;;11.30;99.90;;;;;;4993316;28;20639;-74
2021/10/29 16:30:28;;;;;;;15.43;7.97;;;11.20;99.90;;;;;;4993514;28;20410;-75
2021/10/29 16:35:25;;;;;;;9.63;6.80;;;10.90;99.90;;;;;;4993019;28;20454;-74
2021/10/29 16:37:51;;;;;;;7.40;6.40;;;10.80;99.90;;;;;;4993145;28;20557;-74
2021/10/29 16:40:17;;;;;;;9.47;6.50;;;10.70;99.90;;;;;;4993087;28;20453;-75
2021/10/29 16:42:44;;;;;;;8.10;6.23;;;10.50;99.90;;;;;;4992716;28;20438;-74
2021/10/29 16:45:12;;;;;;;15.53;6.10;;;10.40;99.90;;;;;;4993041;28;20410;-74
2021/10/29 16:47:40;;;;;;;8.43;5.60;;;10.40;99.90;;;;;;4992948;28;20891;-75
2021/10/29 16:50:06;;;;;;;11.27;7.03;;;10.20;99.90;;;;;;4993008;28;20926;-74
2021/10/29 16:52:32;;;;;;;11.20;5.90;;;10.20;99.90;;;;;;4992383;28;20440;-74
2021/10/29 16:54:58;;;;;;;8.90;6.23;;;10.10;99.90;;;;;;4992806;28;20454;-75
2021/10/29 16:57:23;;;;;;;10.70;7.13;;;10.00;99.90;;;;;;4992665;28;20194;-74
2021/10/29 16:59:49;;;;;;;7.60;5.83;;;9.90;99.90;;;;;;4992907;28;20222;-75
2021/10/29 17:02:14;;;;;;;10.70;6.20;;;9.80;99.90;;;;;;4992338;28;20204;-74
2021/10/29 17:04:40;;;;;;;10.37;7.40;;;9.80;99.90;;;;;;4992786;28;20171;-75
2021/10/29 17:07:07;;;;;;;11.37;7.30;;;9.70;99.90;;;;;;4992040;28;20179;-74
2021/10/29 17:09:33;;;;;;;10.10;7.33;;;9.60;99.90;;;;;;4992233;28;20182;-74
2021/10/29 17:11:58;;;;;;;18.37;7.50;;;9.60;99.90;;;;;;4992550;28;20469;-75
2021/10/29 17:14:26;;;;;;;15.33;7.83;;;9.50;99.90;;;;;;4992254;28;20501;-75
2021/10/29 17:16:52;;;;;;;14.87;7.30;;;9.40;99.90;;;;;;4992472;28;20505;-75
2021/10/29 17:19:17;;;;;;;12.73;9.10;;;9.30;99.90;;;;;;5010753;28;20427;-74
2021/10/29 17:21:43;;;;;;;17.00;9.40;;;9.30;99.90;;;;;;5011860;28;20849;-74
2021/10/29 17:24:08;;;;;;;11.80;9.03;;;9.20;99.90;;;;;;5011831;28;20177;-74
2021/10/29 17:26:35;;;;;;;15.60;9.53;;;9.20;99.90;;;;;;5011894;28;20185;-75
2021/10/29 17:29:02;;;;;;;14.63;8.83;;;9.10;99.90;;;;;;5012193;28;20677;-75
2021/10/29 17:31:28;;;;;;;11.73;7.80;;;9.10;99.90;;;;;;5011913;28;20986;-75
2021/10/29 17:33:53;;;;;;;10.60;9.50;;;9.00;99.90;;;;;;5011620;28;20414;-74
2021/10/29 17:36:19;;;;;;;15.80;8.80;;;8.90;99.90;;;;;;5011910;28;20634;-74
2021/10/29 17:38:45;;;;;;;12.60;9.73;;;8.90;99.90;;;;;;5011790;28;20524;-75
2021/10/29 17:41:11;;;;;;;25.73;10.33;;;8.80;99.90;;;;;;5011918;28;20195;-74
2021/10/29 17:43:37;;;;;;;15.43;8.03;;;8.70;99.90;;;;;;5011402;28;20230;-74
2021/10/29 17:46:03;;;;;;;15.67;9.40;;;8.70;99.90;;;;;;5011903;28;20800;-74
2021/10/29 17:48:29;;;;;;;13.77;9.40;;;8.60;99.90;;;;;;5011541;28;20247;-74
2021/10/29 17:50:54;;;;;;;15.50;9.03;;;8.60;99.90;;;;;;5011781;28;20845;-74
2021/10/29 17:53:20;;;;;;;12.47;9.83;;;8.50;99.90;;;;;;5011255;28;20413;-74
2021/10/29 17:55:47;;;;;;;14.67;9.87;;;8.50;99.90;;;;;;5011848;28;20612;-74
2021/10/29 17:58:13;;;;;;;13.80;9.20;;;8.40;99.90;;;;;;5011506;28;20411;-74
2021/10/29 18:00:40;;;;;;;19.83;11.30;;;8.40;99.90;;;;;;5011780;28;20402;-74
2021/10/29 18:03:08;;;;;;;13.60;10.40;;;8.30;99.90;;;;;;5011329;28;20164;-74
2021/10/29 18:05:34;;;;;;;17.97;11.53;;;8.30;99.90;;;;;;5011532;28;20980;-74
2021/10/29 18:08:04;;;;;;;16.17;10.27;;;8.30;99.90;;;;;;5011394;28;20420;-74
2021/10/29 18:10:32;;;;;;;18.93;11.73;;;8.20;99.90;;;;;;5011420;28;20231;-74
2021/10/29 18:12:58;;;;;;;16.87;11.43;;;8.20;99.90;;;;;;5011216;28;20428;-74
2021/10/29 18:15:23;;;;;;;14.20;10.40;;;8.20;99.90;;;;;;5011237;28;20844;-74
2021/10/29 18:17:49;;;;;;;16.83;11.37;;;8.10;99.90;;;;;;5011393;28;20707;-73
2021/10/29 18:20:14;;;;;;;15.20;11.00;;;8.10;99.90;;;;;;5014406;28;20181;-74
2021/10/29 18:22:40;;;;;;;14.63;11.87;;;8.10;99.90;;;;;;5014740;28;20201;-74
2021/10/29 18:25:07;;;;;;;17.07;12.03;;;8.10;99.90;;;;;;5015324;28;20183;-74
2021/10/29 18:27:32;;;;;;;18.93;12.33;;;8.10;99.90;;;;;;5015094;28;20689;-74
2021/10/29 18:29:58;;;;;;;16.87;12.20;;;8.10;99.90;;;;;;5015114;28;20444;-74
2021/10/29 18:32:24;;;;;;;16.13;11.43;;;8.00;99.90;;;;;;5014547;28;20572;-73
2021/10/29 18:34:50;;;;;;;22.17;13.77;;;8.00;99.90;;;;;;5015056;28;20254;-74
2021/10/29 18:37:19;;;;;;;24.70;15.70;;;8.00;99.90;;;;;;5014937;28;20176;-74
2021/10/29 18:39:45;;;;;;;19.97;15.23;;;8.00;99.90;;;;;;5014857;28;20489;-75
2021/10/29 18:42:11;;;;;;;20.10;13.67;;;8.00;99.90;;;;;;5014526;28;20433;-74
2021/10/29 18:44:37;;;;;;;21.60;14.20;;;8.00;99.90;;;;;;5014832;28;21241;-74
2021/10/29 18:47:05;;;;;;;19.83;13.23;;;8.00;99.90;;;;;;5014783;28;20181;-74
2021/10/29 18:49:31;;;;;;;21.10;13.60;;;7.90;99.90;;;;;;5014710;28;20182;-74
2021/10/29 18:51:59;;;;;;;21.70;14.00;;;7.90;99.90;;;;;;5014524;28;20515;-73
2021/10/29 18:54:25;;;;;;;20.63;14.60;;;7.90;99.90;;;;;;5014416;28;20202;-74
2021/10/29 18:56:50;;;;;;;16.30;12.37;;;7.90;99.90;;;;;;5013670;28;20493;-74
2021/10/29 18:59:17;;;;;;;25.70;13.67;;;7.90;99.90;;;;;;5014511;28;20170;-74
2021/10/29 19:01:43;;;;;;;20.50;12.53;;;7.80;99.90;;;;;;5014450;28;20563;-74
2021/10/29 19:04:11;;;;;;;20.57;13.67;;;7.80;99.90;;;;;;5014313;28;20785;-74
2021/10/29 19:06:37;;;;;;;25.97;15.80;;;7.90;99.90;;;;;;5014227;28;20416;-74
2021/10/29 19:09:03;;;;;;;22.97;14.70;;;7.90;99.90;;;;;;5014454;28;20450;-74
2021/10/29 19:11:37;;;;;;;23.87;15.57;;;7.80;99.90;;;;;;5014170;28;20437;-74
2021/10/29 19:14:03;;;;;;;29.53;17.43;;;7.80;99.90;;;;;;5014051;28;20410;-74
2021/10/29 19:16:28;;;;;;;20.60;15.90;;;7.80;99.90;;;;;;5014204;28;21158;-74
2021/10/29 19:18:54;;;;;;;27.13;17.97;;;7.80;99.90;;;;;;5014165;28;20316;-74
2021/10/29 19:21:23;;;;;;;20.77;16.17;;;7.80;99.90;;;;;;5013998;28;20216;-74
2021/10/29 19:23:49;;;;;;;21.37;14.80;;;7.80;99.90;;;;;;5013987;28;20605;-74
2021/10/29 19:26:16;;;;;;;19.53;15.63;;;7.70;99.90;;;;;;5014191;28;20411;-74
2021/10/29 19:28:43;;;;;;;26.63;16.47;;;7.80;99.90;;;;;;5013834;28;20847;-74
2021/10/29 19:31:08;;;;;;;27.90;18.00;;;7.80;99.90;;;;;;5012845;28;20448;-74
2021/10/29 19:33:34;;;;;;;26.60;17.37;;;7.80;99.90;;;;;;5013534;28;20471;-74
2021/10/29 19:36:49;;;;;;;25.03;18.33;;;7.80;99.90;;;;;;5013890;28;20741;-73
2021/10/29 19:39:07;;;;;;;19.80;14.90;;;7.80;99.90;;;;;;5006194;28;20202;-74
2021/10/29 19:41:33;;;;;;;22.53;13.80;;;7.80;99.90;;;;;;5013636;28;20512;-74
2021/10/29 19:43:59;;;;;;;23.53;15.10;;;7.80;99.90;;;;;;5013513;28;20413;-75
2021/10/29 19:46:25;;;;;;;22.07;14.87;;;7.70;99.90;;;;;;5013741;28;20930;-74
2021/10/29 19:48:50;;;;;;;22.10;14.87;;;7.70;99.90;;;;;;5013563;28;20654;-73
2021/10/29 19:51:16;;;;;;;26.20;16.70;;;7.70;99.90;;;;;;5013604;28;20204;-74
2021/10/29 19:53:42;;;;;;;20.07;15.00;;;7.60;99.90;;;;;;5011952;28;20197;-74
2021/10/29 19:56:07;;;;;;;23.60;16.93;;;7.60;99.90;;;;;;5013526;28;20463;-74
2021/10/29 19:58:33;;;;;;;22.70;16.23;;;7.60;99.90;;;;;;5013231;28;20175;-75
2021/10/29 20:00:59;;;;;;;27.90;17.57;;;7.60;99.90;;;;;;5013646;28;20578;-73
2021/10/29 20:03:25;;;;;;;25.50;16.40;;;7.50;99.90;;;;;;5013148;28;20192;-74
2021/10/29 20:05:50;;;;;;;28.30;17.90;;;7.40;99.90;;;;;;5012398;28;20920;-75
2021/10/29 20:08:17;;;;;;;20.13;14.43;;;7.40;99.90;;;;;;5013103;28;20185;-74
2021/10/29 20:10:43;;;;;;;27.33;18.83;;;7.40;99.90;;;;;;5013216;28;20199;-73
2021/10/29 20:13:09;;;;;;;26.07;17.93;;;7.40;99.90;;;;;;5012861;28;20419;-74
2021/10/29 20:15:36;;;;;;;22.93;16.50;;;7.40;99.90;;;;;;5012975;28;20871;-74
2021/10/29 20:18:06;;;;;;;21.73;14.87;;;7.30;99.90;;;;;;5013085;28;20193;-74
2021/10/29 20:20:37;;;;;;;24.13;15.87;;;7.20;99.90;;;;;;5012898;28;20421;-74
2021/10/29 20:23:04;;;;;;;25.37;15.23;;;7.20;99.90;;;;;;5012839;28;20394;-74
2021/10/29 20:25:30;;;;;;;28.13;16.20;;;7.10;99.90;;;;;;5012818;28;20429;-74
2021/10/29 20:27:56;;;;;;;26.20;15.27;;;7.10;99.90;;;;;;5012919;28;20413;-73
2021/10/29 20:30:22;;;;;;;22.73;14.13;;;7.00;99.90;;;;;;5012694;28;20539;-74
2021/10/29 20:32:47;;;;;;;24.23;16.00;;;7.00;99.90;;;;;;5011164;28;20976;-75
2021/10/29 20:35:13;;;;;;;30.03;16.93;;;6.90;99.90;;;;;;5012620;28;20516;-74
2021/10/29 20:37:39;;;;;;;34.50;19.00;;;6.90;99.90;;;;;;5011445;28;20173;-74
2021/10/29 20:40:06;;;;;;;28.50;19.20;;;6.90;99.90;;;;;;5012637;28;20464;-74
2021/10/29 20:42:31;;;;;;;26.13;17.50;;;6.80;99.90;;;;;;5011873;28;20971;-74
2021/10/29 20:44:56;;;;;;;26.53;16.53;;;6.80;99.90;;;;;;5012564;28;20506;-74
2021/10/29 20:47:22;;;;;;;23.03;15.13;;;6.70;99.90;;;;;;5012452;28;20211;-74
2021/10/29 20:49:48;;;;;;;23.30;14.30;;;6.70;99.90;;;;;;5012557;28;20200;-74
2021/10/29 20:52:14;;;;;;;24.73;17.17;;;6.60;99.90;;;;;;5012068;28;20282;-73
2021/10/29 20:54:41;;;;;;;24.83;17.00;;;6.60;99.90;;;;;;5012333;28;20578;-74
2021/10/29 20:57:07;;;;;;;22.20;14.83;;;6.50;99.90;;;;;;5012406;28;20764;-74
2021/10/29 20:59:33;;;;;;;19.40;13.20;;;6.50;99.90;;;;;;5012356;28;20421;-74
2021/10/29 21:01:59;;;;;;;19.47;13.20;;;6.50;99.90;;;;;;5012115;28;20513;-72
2021/10/29 21:04:25;;;;;;;27.40;14.60;;;6.40;99.90;;;;;;5012048;28;20906;-74
2021/10/29 21:06:50;;;;;;;22.20;13.30;;;6.40;99.90;;;;;;5012222;28;20418;-74
2021/10/29 21:09:16;;;;;;;22.43;13.70;;;6.30;99.90;;;;;;5012199;28;20683;-74
2021/10/29 21:11:43;;;;;;;19.17;12.37;;;6.30;99.90;;;;;;5011995;28;20199;-74
2021/10/29 21:14:09;;;;;;;19.70;14.10;;;6.20;99.90;;;;;;5011886;28;20217;-74
2021/10/29 21:16:36;;;;;;;24.87;13.43;;;6.20;99.90;;;;;;5011879;28;20418;-74
2021/10/29 21:19:02;;;;;;;19.67;12.80;;;6.10;99.90;;;;;;5011862;28;20422;-74
2021/10/29 21:21:28;;;;;;;16.43;10.63;;;6.10;99.90;;;;;;5011838;28;20851;-74
2021/10/29 21:23:53;;;;;;;15.93;10.57;;;6.10;99.90;;;;;;5010517;28;20421;-74
2021/10/29 21:26:19;;;;;;;14.87;11.00;;;6.10;99.90;;;;;;5010696;28;20174;-74
2021/10/29 21:28:44;;;;;;;15.83;11.50;;;6.00;99.90;;;;;;5011782;28;20308;-74
2021/10/29 21:31:10;;;;;;;18.57;12.03;;;6.00;99.90;;;;;;5011810;28;20572;-74
2021/10/29 21:33:35;;;;;;;14.33;10.33;;;5.90;99.90;;;;;;5011378;28;20175;-74
2021/10/29 21:36:01;;;;;;;17.30;11.30;;;5.90;99.90;;;;;;5011885;28;20205;-74
2021/10/29 21:38:26;;;;;;;12.23;9.60;;;5.90;99.90;;;;;;5011588;28;20177;-74
2021/10/29 21:40:52;;;;;;;18.57;11.63;;;5.90;99.90;;;;;;5011852;28;20175;-73
2021/10/29 21:43:18;;;;;;;19.10;11.10;;;5.80;99.90;;;;;;5011503;28;20211;-74
2021/10/29 21:45:44;;;;;;;20.50;10.27;;;5.80;99.90;;;;;;5011835;28;20180;-74
2021/10/29 21:48:09;;;;;;;22.03;10.20;;;5.70;99.90;;;;;;5011708;28;20182;-74
2021/10/29 21:50:35;;;;;;;15.77;10.30;;;5.70;99.90;;;;;;5011560;28;20414;-73
2021/10/29 21:53:01;;;;;;;15.53;9.90;;;5.70;99.90;;;;;;5011393;28;20182;-74
2021/10/29 21:55:26;;;;;;;18.87;11.40;;;5.70;99.90;;;;;;5014997;28;20827;-74